Wetterdaten: Woche 08.08.11 - 14.08.11 (KW32)
Datum Zeit Temperatur Luftfeuchte Luftdruck Niederschlag Windrichtung Sonnenschein Solar Wind
08.08.2011 00:00 15,0 C 99 % 1007,4 hPa 0,0 l/m SW 0,00 h 0 W/m 9,5 km/h (2 Bft)
08.08.2011 01:00 14,7 C 99 % 1007,1 hPa 0,0 l/m SW 0,00 h 0 W/m 9,5 km/h (2 Bft)
08.08.2011 02:00 14,5 C 98 % 1007,2 hPa 0,0 l/m W-SW 0,00 h 0 W/m 11,5 km/h (2 Bft)
08.08.2011 03:00 13,9 C 98 % 1006,7 hPa 0,0 l/m SW 0,00 h 0 W/m 4,9 km/h (1 Bft)
08.08.2011 04:00 13,3 C 97 % 1006,8 hPa 0,0 l/m W-SW 0,00 h 0 W/m 7,5 km/h (2 Bft)
08.08.2011 05:00 13,0 C 96 % 1007,3 hPa 0,0 l/m W-SW 0,00 h 0 W/m 8,4 km/h (2 Bft)
08.08.2011 06:00 12,9 C 96 % 1007,6 hPa 0,0 l/m W-SW 0,00 h 7 W/m 8,4 km/h (2 Bft)
08.08.2011 07:00 12,9 C 96 % 1007,5 hPa 0,0 l/m W-SW 0,00 h 47 W/m 12,6 km/h (3 Bft)
08.08.2011 08:00 13,9 C 95 % 1007,3 hPa 0,0 l/m SW 0,67 h 287 W/m 13,8 km/h (3 Bft)
08.08.2011 09:00 16,1 C 85 % 1007,7 hPa 0,2 l/m W-SW 0,42 h 376 W/m 21,6 km/h (4 Bft)
08.08.2011 10:00 16,6 C 79 % 1008,2 hPa 0,0 l/m W 0,17 h 246 W/m 28,2 km/h (4 Bft)
08.08.2011 11:00 16,0 C 80 % 1008,6 hPa 0,0 l/m W 0,50 h 562 W/m 29,9 km/h (5 Bft)
08.08.2011 12:00 17,2 C 70 % 1008,6 hPa 0,0 l/m W 0,50 h 499 W/m 31,1 km/h (5 Bft)
08.08.2011 13:00 18,3 C 65 % 1008,5 hPa 0,0 l/m W-SW 0,75 h 825 W/m 33,1 km/h (5 Bft)
08.08.2011 14:00 19,9 C 53 % 1008,5 hPa 0,0 l/m W 1,00 h 915 W/m 38,4 km/h (5 Bft)
08.08.2011 15:00 20,1 C 48 % 1009,4 hPa 0,0 l/m W-NW 1,00 h 827 W/m 42,3 km/h (6 Bft)
08.08.2011 16:00 19,0 C 51 % 1010,3 hPa 0,0 l/m W 0,67 h 514 W/m 37,8 km/h (5 Bft)
08.08.2011 17:00 17,9 C 59 % 1011,0 hPa 0,0 l/m W 0,58 h 373 W/m 27,2 km/h (4 Bft)
08.08.2011 18:00 17,9 C 59 % 1011,8 hPa 0,0 l/m W-NW 0,83 h 324 W/m 24,3 km/h (4 Bft)
08.08.2011 19:00 16,1 C 63 % 1013,0 hPa 0,0 l/m W 0,50 h 90 W/m 22,4 km/h (4 Bft)
08.08.2011 20:00 14,6 C 66 % 1013,6 hPa 0,0 l/m W 0,42 h 26 W/m 20,4 km/h (4 Bft)
08.08.2011 21:00 13,1 C 73 % 1014,5 hPa 0,0 l/m W-SW 0,00 h 0 W/m 17,3 km/h (3 Bft)
08.08.2011 22:00 11,8 C 81 % 1015,5 hPa 0,0 l/m SW 0,00 h 0 W/m 11,7 km/h (2 Bft)
08.08.2011 23:00 11,4 C 86 % 1016,0 hPa 0,0 l/m SW 0,00 h 0 W/m 13,3 km/h (3 Bft)
09.08.2011 00:00 12,0 C 87 % 1016,2 hPa 0,0 l/m W-SW 0,00 h 0 W/m 14,4 km/h (3 Bft)
09.08.2011 01:00 11,8 C 90 % 1016,4 hPa 0,0 l/m SW 0,00 h 0 W/m 10,8 km/h (2 Bft)
09.08.2011 02:00 11,3 C 91 % 1016,4 hPa 0,0 l/m W-SW 0,00 h 0 W/m 10,4 km/h (2 Bft)
09.08.2011 03:00 11,1 C 90 % 1016,6 hPa 0,0 l/m W-SW 0,00 h 0 W/m 10,6 km/h (2 Bft)
09.08.2011 04:00 11,0 C 93 % 1016,6 hPa 0,0 l/m SW 0,00 h 0 W/m 9,3 km/h (2 Bft)
09.08.2011 05:00 11,5 C 91 % 1016,8 hPa 0,0 l/m W 0,00 h 0 W/m 16,0 km/h (3 Bft)
09.08.2011 06:00 11,8 C 90 % 1016,9 hPa 0,0 l/m W 0,00 h 20 W/m 18,4 km/h (3 Bft)
09.08.2011 07:00 12,0 C 90 % 1017,1 hPa 0,0 l/m SW 0,33 h 102 W/m 19,8 km/h (4 Bft)
09.08.2011 08:00 13,1 C 87 % 1017,7 hPa 0,0 l/m W-SW 0,08 h 122 W/m 20,5 km/h (4 Bft)
09.08.2011 09:00 13,2 C 83 % 1017,9 hPa 0,0 l/m W-SW 0,08 h 146 W/m 17,6 km/h (3 Bft)
09.08.2011 10:00 14,9 C 75 % 1017,8 hPa 0,0 l/m W-SW 0,25 h 309 W/m 22,4 km/h (4 Bft)
09.08.2011 11:00 15,4 C 68 % 1017,8 hPa 0,0 l/m W 0,08 h 172 W/m 23,9 km/h (4 Bft)
09.08.2011 12:00 15,5 C 63 % 1018,0 hPa 0,0 l/m W-SW 0,00 h 206 W/m 22,7 km/h (4 Bft)
09.08.2011 13:00 16,7 C 57 % 1018,1 hPa 0,0 l/m W-SW 0,42 h 529 W/m 26,6 km/h (4 Bft)
09.08.2011 14:00 17,1 C 59 % 1018,1 hPa 0,0 l/m W-NW 0,58 h 640 W/m 25,6 km/h (4 Bft)
09.08.2011 15:00 17,4 C 55 % 1018,4 hPa 0,0 l/m W 0,50 h 543 W/m 24,9 km/h (4 Bft)
09.08.2011 16:00 16,8 C 58 % 1018,7 hPa 0,0 l/m W-NW 0,17 h 273 W/m 22,0 km/h (4 Bft)
09.08.2011 17:00 15,5 C 69 % 1019,2 hPa 0,2 l/m W-NW 0,00 h 97 W/m 18,4 km/h (3 Bft)
09.08.2011 18:00 13,9 C 84 % 1019,5 hPa 0,0 l/m W-NW 0,00 h 90 W/m 10,1 km/h (2 Bft)
09.08.2011 19:00 13,3 C 87 % 1020,1 hPa 0,4 l/m W-NW 0,00 h 35 W/m 11,5 km/h (2 Bft)
09.08.2011 20:00 12,0 C 89 % 1020,4 hPa 0,0 l/m W-NW 0,00 h 9 W/m 7,0 km/h (2 Bft)
09.08.2011 21:00 11,6 C 92 % 1021,5 hPa 0,2 l/m W 0,00 h 0 W/m 5,7 km/h (1 Bft)
09.08.2011 22:00 11,7 C 93 % 1022,5 hPa 0,0 l/m W 0,00 h 0 W/m 3,6 km/h (1 Bft)
09.08.2011 23:00 11,6 C 90 % 1022,8 hPa 0,0 l/m W 0,00 h 0 W/m 9,3 km/h (2 Bft)
10.08.2011 00:00 11,4 C 87 % 1023,4 hPa 0,0 l/m W 0,00 h 0 W/m 9,9 km/h (2 Bft)
10.08.2011 01:00 11,2 C 87 % 1023,6 hPa 0,0 l/m W-NW 0,00 h 0 W/m 10,9 km/h (2 Bft)
10.08.2011 02:00 11,0 C 87 % 1023,8 hPa 0,0 l/m W-NW 0,00 h 0 W/m 9,7 km/h (2 Bft)
10.08.2011 03:00 10,8 C 88 % 1024,0 hPa 0,0 l/m W-NW 0,00 h 0 W/m 2,9 km/h (1 Bft)
10.08.2011 04:00 10,0 C 94 % 1024,2 hPa 0,0 l/m N 0,00 h 0 W/m 1,6 km/h (1 Bft)
10.08.2011 05:00 9,7 C 93 % 1024,4 hPa 0,0 l/m N 0,00 h 0 W/m 1,7 km/h (1 Bft)
10.08.2011 06:00 8,6 C 95 % 1024,8 hPa 0,0 l/m N 0,08 h 19 W/m 0,7 km/h (0 Bft)
10.08.2011 07:00 9,5 C 96 % 1025,2 hPa 0,0 l/m N 0,50 h 130 W/m 0,5 km/h (0 Bft)
10.08.2011 08:00 11,6 C 88 % 1025,3 hPa 0,0 l/m W-NW 0,33 h 175 W/m 3,9 km/h (1 Bft)
10.08.2011 09:00 12,7 C 78 % 1025,3 hPa 0,0 l/m W-NW 0,67 h 397 W/m 9,0 km/h (2 Bft)
10.08.2011 10:00 13,4 C 70 % 1025,2 hPa 0,0 l/m W-NW 0,25 h 289 W/m 12,6 km/h (3 Bft)
10.08.2011 11:00 14,2 C 67 % 1025,2 hPa 0,0 l/m NW 0,42 h 478 W/m 11,1 km/h (2 Bft)
10.08.2011 12:00 15,5 C 62 % 1024,8 hPa 0,0 l/m W 0,50 h 515 W/m 13,8 km/h (3 Bft)
10.08.2011 13:00 15,9 C 61 % 1024,4 hPa 0,0 l/m NW 0,33 h 489 W/m 11,0 km/h (2 Bft)
10.08.2011 14:00 16,9 C 59 % 1024,0 hPa 0,0 l/m W 0,33 h 435 W/m 11,4 km/h (2 Bft)
10.08.2011 15:00 17,3 C 56 % 1023,5 hPa 0,0 l/m W-SW 0,33 h 413 W/m 11,0 km/h (2 Bft)
10.08.2011 16:00 18,4 C 51 % 1022,9 hPa 0,0 l/m NW 0,75 h 571 W/m 10,9 km/h (2 Bft)
10.08.2011 17:00 18,9 C 50 % 1022,2 hPa 0,0 l/m W 1,00 h 543 W/m 11,7 km/h (2 Bft)
10.08.2011 18:00 18,4 C 53 % 1021,6 hPa 0,0 l/m W-SW 1,00 h 355 W/m 9,8 km/h (2 Bft)
10.08.2011 19:00 17,1 C 60 % 1021,3 hPa 0,0 l/m W 0,58 h 129 W/m 5,9 km/h (2 Bft)
10.08.2011 20:00 14,2 C 78 % 1021,2 hPa 0,0 l/m N 0,00 h 14 W/m 2,5 km/h (1 Bft)
10.08.2011 21:00 12,4 C 83 % 1021,4 hPa 0,0 l/m N 0,00 h 0 W/m 2,7 km/h (1 Bft)
10.08.2011 22:00 11,4 C 85 % 1021,7 hPa 0,0 l/m N 0,00 h 0 W/m 1,1 km/h (0 Bft)
10.08.2011 23:00 10,1 C 90 % 1021,7 hPa 0,0 l/m N 0,00 h 0 W/m 0,1 km/h (0 Bft)
11.08.2011 00:00 9,1 C 93 % 1021,5 hPa 0,0 l/m N 0,00 h 0 W/m 0,0 km/h (0 Bft)
11.08.2011 01:00 8,3 C 95 % 1021,1 hPa 0,0 l/m N 0,00 h 0 W/m 0,3 km/h (0 Bft)
11.08.2011 02:00 7,9 C 95 % 1020,5 hPa 0,0 l/m N 0,00 h 0 W/m 0,0 km/h (0 Bft)
11.08.2011 03:00 7,5 C 96 % 1020,3 hPa 0,0 l/m N 0,00 h 0 W/m 0,0 km/h (0 Bft)
11.08.2011 04:00 7,1 C 96 % 1020,3 hPa 0,0 l/m N 0,00 h 0 W/m 0,0 km/h (0 Bft)
11.08.2011 05:00 6,7 C 97 % 1019,7 hPa 0,0 l/m N 0,00 h 0 W/m 0,0 km/h (0 Bft)
11.08.2011 06:00 6,5 C 97 % 1019,6 hPa 0,0 l/m N 0,00 h 17 W/m 0,0 km/h (0 Bft)
11.08.2011 07:00 8,0 C 96 % 1019,6 hPa 0,0 l/m N 0,75 h 145 W/m 0,0 km/h (0 Bft)
11.08.2011 08:00 11,5 C 91 % 1019,3 hPa 0,0 l/m N 0,75 h 268 W/m 0,0 km/h (0 Bft)
11.08.2011 09:00 14,7 C 83 % 1018,9 hPa 0,0 l/m N 0,67 h 367 W/m 1,6 km/h (1 Bft)
11.08.2011 10:00 16,9 C 70 % 1018,7 hPa 0,0 l/m SW 0,92 h 585 W/m 9,4 km/h (2 Bft)
11.08.2011 11:00 18,9 C 67 % 1018,2 hPa 0,0 l/m SW 0,83 h 612 W/m 12,3 km/h (3 Bft)
11.08.2011 12:00 20,7 C 53 % 1017,5 hPa 0,0 l/m SW 1,00 h 846 W/m 13,7 km/h (3 Bft)
11.08.2011 13:00 22,6 C 40 % 1016,9 hPa 0,0 l/m W 1,00 h 900 W/m 15,6 km/h (3 Bft)
11.08.2011 14:00 23,2 C 42 % 1016,3 hPa 0,0 l/m W 0,92 h 779 W/m 14,4 km/h (3 Bft)
11.08.2011 15:00 24,1 C 43 % 1015,7 hPa 0,0 l/m W-SW 0,92 h 795 W/m 14,9 km/h (3 Bft)
11.08.2011 16:00 23,5 C 44 % 1015,1 hPa 0,0 l/m SW 0,42 h 381 W/m 15,3 km/h (3 Bft)
11.08.2011 17:00 22,7 C 40 % 1014,8 hPa 0,0 l/m S-SW 0,58 h 338 W/m 11,8 km/h (2 Bft)
11.08.2011 18:00 22,1 C 47 % 1014,5 hPa 0,0 l/m SW 0,67 h 265 W/m 9,5 km/h (2 Bft)
11.08.2011 19:00 20,5 C 55 % 1014,2 hPa 0,0 l/m SW 0,25 h 79 W/m 3,9 km/h (1 Bft)
11.08.2011 20:00 17,4 C 71 % 1014,1 hPa 0,0 l/m N 0,00 h 14 W/m 0,7 km/h (0 Bft)
11.08.2011 21:00 15,5 C 75 % 1014,2 hPa 0,0 l/m N 0,00 h 0 W/m 0,4 km/h (0 Bft)
11.08.2011 22:00 15,3 C 80 % 1014,1 hPa 0,0 l/m N 0,00 h 0 W/m 0,1 km/h (0 Bft)
11.08.2011 23:00 15,4 C 83 % 1014,1 hPa 0,0 l/m N 0,00 h 0 W/m 0,3 km/h (0 Bft)
12.08.2011 00:00 15,3 C 86 % 1013,7 hPa 0,0 l/m N 0,00 h 0 W/m 0,1 km/h (0 Bft)
12.08.2011 01:00 15,0 C 87 % 1013,4 hPa 0,0 l/m N 0,00 h 0 W/m 0,1 km/h (0 Bft)
12.08.2011 02:00 14,0 C 89 % 1013,4 hPa 0,0 l/m N 0,00 h 0 W/m 1,9 km/h (1 Bft)
12.08.2011 03:00 14,3 C 85 % 1013,3 hPa 0,0 l/m SW 0,00 h 0 W/m 3,9 km/h (1 Bft)
12.08.2011 04:00 13,3 C 90 % 1013,1 hPa 0,0 l/m N 0,00 h 0 W/m 1,2 km/h (1 Bft)
12.08.2011 05:00 12,4 C 92 % 1013,0 hPa 0,0 l/m N 0,00 h 0 W/m 1,3 km/h (1 Bft)
12.08.2011 06:00 12,3 C 92 % 1013,0 hPa 0,0 l/m SW 0,00 h 16 W/m 2,0 km/h (1 Bft)
12.08.2011 07:00 14,6 C 86 % 1012,9 hPa 0,0 l/m W-SW 0,17 h 87 W/m 11,3 km/h (2 Bft)
12.08.2011 08:00 17,0 C 79 % 1012,7 hPa 0,0 l/m SW 1,00 h 295 W/m 15,2 km/h (3 Bft)
12.08.2011 09:00 18,4 C 70 % 1012,8 hPa 0,0 l/m W-SW 0,83 h 342 W/m 17,6 km/h (3 Bft)
12.08.2011 10:00 20,1 C 62 % 1012,7 hPa 0,0 l/m W-SW 1,00 h 565 W/m 21,7 km/h (4 Bft)
12.08.2011 11:00 20,7 C 59 % 1012,5 hPa 0,0 l/m W 0,67 h 462 W/m 20,4 km/h (4 Bft)
12.08.2011 12:00 21,8 C 55 % 1012,0 hPa 0,0 l/m W 0,83 h 549 W/m 20,5 km/h (4 Bft)
12.08.2011 13:00 22,3 C 53 % 1011,7 hPa 0,0 l/m W 0,42 h 503 W/m 19,6 km/h (3 Bft)
12.08.2011 14:00 23,6 C 49 % 1011,1 hPa 0,0 l/m W 0,75 h 691 W/m 20,5 km/h (4 Bft)
12.08.2011 15:00 23,9 C 48 % 1010,6 hPa 0,0 l/m SW 0,33 h 477 W/m 18,1 km/h (3 Bft)
12.08.2011 16:00 23,7 C 48 % 1010,4 hPa 0,0 l/m W 0,25 h 365 W/m 18,5 km/h (3 Bft)
12.08.2011 17:00 23,5 C 49 % 1010,1 hPa 0,0 l/m W 0,25 h 271 W/m 19,8 km/h (4 Bft)
12.08.2011 18:00 22,4 C 53 % 1010,0 hPa 0,0 l/m W-NW 0,25 h 136 W/m 10,7 km/h (2 Bft)
12.08.2011 19:00 21,6 C 58 % 1010,0 hPa 0,0 l/m W-NW 0,25 h 75 W/m 9,0 km/h (2 Bft)
12.08.2011 20:00 20,7 C 59 % 1010,3 hPa 0,0 l/m W 0,00 h 9 W/m 11,7 km/h (2 Bft)
12.08.2011 21:00 19,7 C 64 % 1010,8 hPa 0,0 l/m W-NW 0,00 h 0 W/m 5,5 km/h (1 Bft)
12.08.2011 22:00 18,9 C 68 % 1011,0 hPa 0,0 l/m NW 0,00 h 0 W/m 8,2 km/h (2 Bft)
12.08.2011 23:00 17,7 C 73 % 1011,3 hPa 0,0 l/m W-NW 0,00 h 0 W/m 5,7 km/h (1 Bft)
13.08.2011 00:00 16,9 C 77 % 1011,4 hPa 0,0 l/m W-NW 0,00 h 0 W/m 2,7 km/h (1 Bft)
13.08.2011 01:00 16,7 C 77 % 1011,6 hPa 0,0 l/m W 0,00 h 0 W/m 10,1 km/h (2 Bft)
13.08.2011 02:00 16,0 C 82 % 1011,3 hPa 0,0 l/m W 0,00 h 0 W/m 3,9 km/h (1 Bft)
13.08.2011 03:00 15,6 C 86 % 1011,1 hPa 0,2 l/m W-SW 0,00 h 0 W/m 3,3 km/h (1 Bft)
13.08.2011 04:00 15,0 C 93 % 1011,0 hPa 0,2 l/m SW 0,00 h 0 W/m 9,5 km/h (2 Bft)
13.08.2011 05:00 14,7 C 96 % 1010,8 hPa 0,2 l/m SW 0,00 h 0 W/m 10,6 km/h (2 Bft)
13.08.2011 06:00 14,7 C 96 % 1011,0 hPa 1,2 l/m W-SW 0,00 h 9 W/m 7,6 km/h (2 Bft)
13.08.2011 07:00 14,8 C 97 % 1010,9 hPa 0,0 l/m S-SW 0,00 h 21 W/m 4,9 km/h (1 Bft)
13.08.2011 08:00 15,3 C 98 % 1011,1 hPa 0,0 l/m SW 0,17 h 135 W/m 5,5 km/h (1 Bft)
13.08.2011 09:00 17,0 C 91 % 1010,9 hPa 0,0 l/m SW 0,25 h 236 W/m 14,2 km/h (3 Bft)
13.08.2011 10:00 17,9 C 86 % 1010,7 hPa 0,0 l/m SW 0,17 h 278 W/m 13,2 km/h (3 Bft)
13.08.2011 11:00 19,6 C 78 % 1010,6 hPa 0,0 l/m W-SW 0,75 h 592 W/m 17,7 km/h (3 Bft)
13.08.2011 12:00 21,3 C 70 % 1010,3 hPa 0,0 l/m SW 0,75 h 647 W/m 15,6 km/h (3 Bft)
13.08.2011 13:00 21,9 C 61 % 1010,0 hPa 0,0 l/m W 0,58 h 479 W/m 15,8 km/h (3 Bft)
13.08.2011 14:00 21,4 C 64 % 1009,8 hPa 0,0 l/m W-NW 0,17 h 297 W/m 9,1 km/h (2 Bft)
13.08.2011 15:00 22,4 C 63 % 1009,3 hPa 0,0 l/m W-SW 0,25 h 399 W/m 10,1 km/h (2 Bft)
13.08.2011 16:00 22,9 C 61 % 1009,2 hPa 0,0 l/m W-SW 0,25 h 336 W/m 9,4 km/h (2 Bft)
13.08.2011 17:00 22,7 C 62 % 1008,7 hPa 0,0 l/m W-NW 0,33 h 251 W/m 5,1 km/h (1 Bft)
13.08.2011 18:00 22,8 C 64 % 1008,6 hPa 0,0 l/m W-SW 0,50 h 231 W/m 8,0 km/h (2 Bft)
13.08.2011 19:00 21,3 C 71 % 1008,5 hPa 0,0 l/m W-SW 0,25 h 79 W/m 7,1 km/h (2 Bft)
13.08.2011 20:00 19,2 C 80 % 1008,6 hPa 0,0 l/m W-SW 0,08 h 17 W/m 3,6 km/h (1 Bft)
13.08.2011 21:00 17,4 C 85 % 1008,9 hPa 0,0 l/m W-SW 0,00 h 0 W/m 3,2 km/h (1 Bft)
13.08.2011 22:00 16,6 C 88 % 1009,1 hPa 0,0 l/m N 0,00 h 0 W/m 0,3 km/h (0 Bft)
13.08.2011 23:00 15,2 C 93 % 1009,1 hPa 0,0 l/m N 0,00 h 0 W/m 0,0 km/h (0 Bft)
14.08.2011 00:00 14,7 C 94 % 1009,1 hPa 0,0 l/m N 0,00 h 0 W/m 0,1 km/h (0 Bft)
14.08.2011 01:00 14,1 C 96 % 1009,1 hPa 0,0 l/m N 0,00 h 0 W/m 0,0 km/h (0 Bft)
14.08.2011 02:00 13,7 C 97 % 1008,9 hPa 0,0 l/m N 0,00 h 0 W/m 0,0 km/h (0 Bft)
14.08.2011 03:00 13,2 C 97 % 1008,6 hPa 0,0 l/m N 0,00 h 0 W/m 0,0 km/h (0 Bft)
14.08.2011 04:00 12,9 C 97 % 1008,1 hPa 0,0 l/m N 0,00 h 0 W/m 0,0 km/h (0 Bft)
14.08.2011 05:00 12,6 C 97 % 1008,0 hPa 0,0 l/m N 0,00 h 0 W/m 0,0 km/h (0 Bft)
14.08.2011 06:00 12,3 C 98 % 1007,7 hPa 0,0 l/m N 0,17 h 16 W/m 0,0 km/h (0 Bft)
14.08.2011 07:00 13,2 C 98 % 1007,5 hPa 0,0 l/m N 0,00 h 63 W/m 0,0 km/h (0 Bft)
14.08.2011 08:00 15,3 C 94 % 1007,6 hPa 0,0 l/m N 0,58 h 218 W/m 0,3 km/h (0 Bft)
14.08.2011 09:00 18,9 C 84 % 1007,5 hPa 0,0 l/m S-SW 1,00 h 448 W/m 9,7 km/h (2 Bft)
14.08.2011 10:00 21,7 C 76 % 1007,4 hPa 0,0 l/m S-SO 1,00 h 589 W/m 10,4 km/h (2 Bft)
14.08.2011 11:00 23,6 C 72 % 1007,2 hPa 0,0 l/m S-SW 0,83 h 628 W/m 11,6 km/h (2 Bft)
14.08.2011 12:00 24,4 C 61 % 1007,0 hPa 0,0 l/m W-SW 0,58 h 503 W/m 16,0 km/h (3 Bft)
14.08.2011 13:00 25,8 C 56 % 1006,9 hPa 0,0 l/m W 0,75 h 725 W/m 19,0 km/h (3 Bft)
14.08.2011 14:00 26,2 C 55 % 1006,9 hPa 0,0 l/m W 0,42 h 530 W/m 22,2 km/h (4 Bft)
14.08.2011 15:00 26,7 C 53 % 1006,6 hPa 0,0 l/m W 1,00 h 749 W/m 27,9 km/h (4 Bft)
14.08.2011 16:00 26,5 C 54 % 1006,6 hPa 0,0 l/m W 0,75 h 512 W/m 29,2 km/h (5 Bft)
14.08.2011 17:00 24,9 C 60 % 1007,0 hPa 0,0 l/m W 0,00 h 121 W/m 22,5 km/h (4 Bft)
14.08.2011 18:00 23,9 C 62 % 1007,1 hPa 0,0 l/m W 0,00 h 49 W/m 15,8 km/h (3 Bft)
14.08.2011 19:00 22,7 C 66 % 1007,5 hPa 0,0 l/m W 0,00 h 15 W/m 10,2 km/h (2 Bft)
14.08.2011 20:00 21,6 C 66 % 1008,0 hPa 0,0 l/m NW 0,00 h 7 W/m 14,9 km/h (3 Bft)
14.08.2011 21:00 19,9 C 72 % 1008,9 hPa 0,0 l/m W-NW 0,00 h 0 W/m 8,0 km/h (2 Bft)
14.08.2011 22:00 17,7 C 84 % 1009,3 hPa 0,0 l/m N 0,00 h 0 W/m 0,1 km/h (0 Bft)
14.08.2011 23:00 17,6 C 86 % 1009,8 hPa 0,0 l/m N 0,00 h 0 W/m 0,7 km/h (0 Bft)
Min-Datum _ 11.08.11 11.08.11 08.08.11 - - - - 09.08.11
_ Min-Zeit 06:25 17:30 03:50 - - - - 22:00
Minimum _ 6,3 C 35 % 1006,5 hPa - - - - 0,0 km/h (0 Bft)
Max-Datum _ 14.08.11 08.08.11 10.08.11 13.08.11 - 08.08.11 09.08.11 08.08.11
_ Max-Zeit 15:55 00:00 08:45 06:05 - 08:20 15:00 15:15
Maximum _ 26,9 C 99 % 1025,5 hPa 1,2 l/m - 0,08 h 1132 W/m 57,9 km/h
W-NW (7 Bft)
Durchschnitt _ 16,2 C 76 % 1014,1 hPa #2,8 l/m W-SW #45:50 h 329 W/m 10,9 km/h (2 Bft)